createdAt,value
2017-04-14T00:00:49.825Z,1015.28
2017-04-14T00:02:12.343Z,1015.31
2017-04-14T00:03:34.168Z,1015.27
2017-04-14T00:04:55.387Z,1015.25
2017-04-14T00:06:17.206Z,1015.21
2017-04-14T00:07:39.944Z,1015.27
2017-04-14T00:09:02.097Z,1015.2
2017-04-14T00:10:23.919Z,1015.22
2017-04-14T00:11:45.741Z,1015.22
2017-04-14T00:13:08.257Z,1015.22
2017-04-14T00:14:30.393Z,1015.19
2017-04-14T00:15:52.243Z,1015.19
2017-04-14T00:17:13.467Z,1015.15
2017-04-14T00:18:35.870Z,1015.2
2017-04-14T00:19:58.341Z,1015.2
2017-04-14T00:21:19.848Z,1015.2
2017-04-14T00:22:41.981Z,1015.22
2017-04-14T00:24:03.782Z,1015.18
2017-04-14T00:25:26.080Z,1015.19
2017-04-14T00:26:47.962Z,1015.2
2017-04-14T00:28:10.099Z,1015.16
2017-04-14T00:29:32.193Z,1015.16
2017-04-14T00:30:54.042Z,1015.14
2017-04-14T00:32:15.652Z,1015.18
2017-04-14T00:33:37.174Z,1015.15
2017-04-14T00:34:59.362Z,1015.14
2017-04-14T00:36:21.209Z,1015.11
2017-04-14T00:37:43.648Z,1015.12
2017-04-14T00:39:05.498Z,1015.14
2017-04-14T00:40:27.617Z,1015.13
2017-04-14T00:41:49.833Z,1015.08
2017-04-14T00:43:12.109Z,1015.1
2017-04-14T00:44:34.263Z,1015.11
2017-04-14T00:45:56.538Z,1015.12
2017-04-14T00:47:18.844Z,1015.15
2017-04-14T00:48:41.038Z,1015.18
2017-04-14T00:50:02.246Z,1015.17
2017-04-14T00:51:24.367Z,1015.18
2017-04-14T00:52:46.219Z,1015.13
2017-04-14T00:54:08.441Z,1015.08
2017-04-14T00:55:30.279Z,1015.14
2017-04-14T00:56:52.671Z,1015.12
2017-04-14T00:58:14.490Z,1015.14
2017-04-14T00:59:36.655Z,1015.1
2017-04-14T01:00:58.157Z,1015.11
2017-04-14T01:02:20.245Z,1015.13
2017-04-14T01:03:42.704Z,1015.13
2017-04-14T01:05:04.608Z,1015.1
2017-04-14T01:06:26.426Z,1015.07
2017-04-14T01:07:48.933Z,1015.09
2017-04-14T01:09:10.457Z,1015.07
2017-04-14T01:10:31.974Z,1015.08
2017-04-14T01:11:54.157Z,1015.09
2017-04-14T01:13:16.281Z,1015.11
2017-04-14T01:14:38.442Z,1015.03
2017-04-14T01:16:00.268Z,1015.07
2017-04-14T01:17:22.478Z,1015.07
2017-04-14T01:18:44.716Z,1015.04
2017-04-14T01:20:06.537Z,1015.04
2017-04-14T01:21:28.692Z,1015.01
2017-04-14T01:22:50.873Z,1015.01
2017-04-14T01:24:13.096Z,1015
2017-04-14T01:25:34.709Z,1015.02
2017-04-14T01:26:56.857Z,1014.95
2017-04-14T01:28:18.689Z,1015
2017-04-14T01:29:41.505Z,1014.96
2017-04-14T01:31:03.021Z,1014.95
2017-04-14T01:32:24.888Z,1014.96
2017-04-14T01:33:46.702Z,1014.96
2017-04-14T01:35:08.250Z,1015.04
2017-04-14T01:36:30.091Z,1014.95
2017-04-14T01:37:51.903Z,1014.98
2017-04-14T01:39:13.730Z,1015
2017-04-14T01:40:35.819Z,1014.99
2017-04-14T01:41:57.528Z,1014.98
2017-04-14T01:43:19.341Z,1014.95
2017-04-14T01:44:41.168Z,1014.97
2017-04-14T01:46:03.248Z,1014.99
2017-04-14T01:47:25.067Z,1015.03
2017-04-14T01:48:46.259Z,1015.01
2017-04-14T01:50:08.478Z,1015.02
2017-04-14T01:51:30.890Z,1015.02
2017-04-14T01:52:53.049Z,1015.01
2017-04-14T01:54:15.608Z,1014.95
2017-04-14T01:55:37.448Z,1015
2017-04-14T01:56:59.604Z,1015
2017-04-14T01:58:21.450Z,1014.98
2017-04-14T01:59:43.609Z,1014.98
2017-04-14T02:01:06.057Z,1014.96
2017-04-14T02:02:27.916Z,1014.99
2017-04-14T02:03:49.133Z,1014.99
2017-04-14T02:05:11.361Z,1015
2017-04-14T02:06:33.961Z,1014.98
2017-04-14T02:07:55.732Z,1014.97
2017-04-14T02:09:17.578Z,1014.96
2017-04-14T02:10:39.412Z,1015
2017-04-14T02:12:01.651Z,1014.99
2017-04-14T02:13:23.505Z,1014.97
2017-04-14T02:14:45.968Z,1014.94
2017-04-14T02:16:07.500Z,1014.92
2017-04-14T02:17:29.947Z,1014.92
2017-04-14T02:18:51.769Z,1014.97
2017-04-14T02:20:13.901Z,1014.98
2017-04-14T02:21:36.045Z,1015
2017-04-14T02:22:57.888Z,1014.98
2017-04-14T02:24:19.979Z,1014.98
2017-04-14T02:25:42.134Z,1014.94
2017-04-14T02:27:04.015Z,1014.96
2017-04-14T02:28:26.298Z,1015.01
2017-04-14T02:29:48.693Z,1014.99
2017-04-14T02:31:10.522Z,1014.97
2017-04-14T02:32:32.041Z,1014.98
2017-04-14T02:33:54.169Z,1014.98
2017-04-14T02:35:16.348Z,1014.94
2017-04-14T02:36:38.482Z,1014.97
2017-04-14T02:38:00.617Z,1014.99
2017-04-14T02:39:22.443Z,1014.96
2017-04-14T02:40:44.517Z,1014.95
2017-04-14T02:42:07.108Z,1014.92
2017-04-14T02:43:28.916Z,1014.96
2017-04-14T02:44:51.369Z,1014.93
2017-04-14T02:46:13.268Z,1014.89
2017-04-14T02:47:35.154Z,1014.9
2017-04-14T02:48:57.296Z,1014.9
2017-04-14T02:50:19.748Z,1014.92
2017-04-14T02:51:42.461Z,1014.89
2017-04-14T02:53:04.743Z,1014.89
2017-04-14T02:54:26.940Z,1014.93
2017-04-14T02:55:49.068Z,1014.9
2017-04-14T02:57:11.648Z,1014.95
2017-04-14T02:58:33.786Z,1014.96
2017-04-14T02:59:55.397Z,1014.96
2017-04-14T03:01:16.267Z,1014.93
2017-04-14T03:02:38.401Z,1014.99
2017-04-14T03:03:59.610Z,1014.98
2017-04-14T03:05:21.425Z,1014.96
2017-04-14T03:06:43.565Z,1014.99
2017-04-14T03:08:05.658Z,1014.98
2017-04-14T03:09:27.588Z,1015.02
2017-04-14T03:10:49.108Z,1015.02
2017-04-14T03:12:11.258Z,1014.98
2017-04-14T03:13:34.107Z,1014.94
2017-04-14T03:14:55.670Z,1014.98
2017-04-14T03:16:17.493Z,1014.93
2017-04-14T03:17:39.669Z,1014.94
2017-04-14T03:19:01.848Z,1014.94
2017-04-14T03:20:24.326Z,1014.91
2017-04-14T03:21:46.790Z,1014.95
2017-04-14T03:23:09.005Z,1014.97
2017-04-14T03:24:31.189Z,1014.97
2017-04-14T03:25:52.696Z,1014.99
2017-04-14T03:27:14.578Z,1015
2017-04-14T03:28:36.117Z,1014.95
2017-04-14T03:29:58.345Z,1014.94
2017-04-14T03:31:20.167Z,1014.94
2017-04-14T03:32:41.437Z,1014.98
2017-04-14T03:34:03.262Z,1014.95
2017-04-14T03:35:25.447Z,1014.97
2017-04-14T03:36:46.804Z,1014.95
2017-04-14T03:38:08.940Z,1014.92
2017-04-14T03:39:30.467Z,1014.96
2017-04-14T03:40:52.860Z,1014.95
2017-04-14T03:42:14.363Z,1014.97
2017-04-14T03:43:35.932Z,1014.94
2017-04-14T03:44:57.439Z,1014.97
2017-04-14T03:46:19.349Z,1015.02
2017-04-14T03:47:40.858Z,1015.01
2017-04-14T03:49:02.830Z,1015
2017-04-14T03:50:24.647Z,1014.99
2017-04-14T03:51:46.584Z,1014.98
2017-04-14T03:53:08.768Z,1014.96
2017-04-14T03:54:30.608Z,1014.97
2017-04-14T03:55:53.097Z,1014.97
2017-04-14T03:57:15.288Z,1015
2017-04-14T03:58:37.218Z,1014.99
2017-04-14T03:59:58.405Z,1014.97
2017-04-14T04:01:19.915Z,1015.01
2017-04-14T04:02:42.028Z,1015.02
2017-04-14T04:04:03.964Z,1015.02
2017-04-14T04:05:26.100Z,1015.02
2017-04-14T04:06:47.925Z,1015.01
2017-04-14T04:08:10.338Z,1014.96
2017-04-14T04:09:31.854Z,1015.01
2017-04-14T04:10:54.018Z,1015.01
2017-04-14T04:12:15.897Z,1015.02
2017-04-14T04:13:37.977Z,1015.06
2017-04-14T04:14:59.807Z,1015.07
2017-04-14T04:16:21.638Z,1015.04
2017-04-14T04:17:43.190Z,1015.03
2017-04-14T04:19:05.689Z,1015.02
2017-04-14T04:20:27.873Z,1015.08
2017-04-14T04:21:49.119Z,1015.07
2017-04-14T04:23:10.949Z,1015.09
2017-04-14T04:24:33.048Z,1015.08
2017-04-14T04:25:55.187Z,1015.08
2017-04-14T04:27:16.690Z,1015.08
2017-04-14T04:28:39.159Z,1015.11
2017-04-14T04:30:01.147Z,1015.09
2017-04-14T04:31:22.653Z,1015.08
2017-04-14T04:32:44.155Z,1015.13
2017-04-14T04:34:05.666Z,1015.14
2017-04-14T04:35:27.548Z,1015.11
2017-04-14T04:36:49.079Z,1015.11
2017-04-14T04:38:11.298Z,1015.15
2017-04-14T04:39:33.129Z,1015.19
2017-04-14T04:40:55.305Z,1015.2
2017-04-14T04:42:17.797Z,1015.19
2017-04-14T04:43:39.313Z,1015.22
2017-04-14T04:45:00.821Z,1015.21
2017-04-14T04:46:22.879Z,1015.24
2017-04-14T04:47:45.028Z,1015.28
2017-04-14T04:49:06.233Z,1015.29
2017-04-14T04:50:27.753Z,1015.3
2017-04-14T04:51:50.285Z,1015.31
2017-04-14T04:53:12.419Z,1015.36
2017-04-14T04:54:34.553Z,1015.37
2017-04-14T04:55:55.799Z,1015.39
2017-04-14T04:57:17.251Z,1015.37
2017-04-14T04:58:39.392Z,1015.41
2017-04-14T05:00:01.951Z,1015.42
2017-04-14T05:01:23.799Z,1015.42
2017-04-14T05:02:46.307Z,1015.43
2017-04-14T05:04:08.446Z,1015.48
2017-04-14T05:05:30.308Z,1015.48
2017-04-14T05:06:52.135Z,1015.46
2017-04-14T05:08:14.279Z,1015.49
2017-04-14T05:09:36.443Z,1015.51
2017-04-14T05:10:58.266Z,1015.54
2017-04-14T05:12:20.086Z,1015.52
2017-04-14T05:13:42.897Z,1015.52
2017-04-14T05:15:04.743Z,1015.57
2017-04-14T05:16:26.896Z,1015.55
2017-04-14T05:17:49.144Z,1015.57
2017-04-14T05:19:11.638Z,1015.62
2017-04-14T05:20:32.833Z,1015.61
2017-04-14T05:21:55.298Z,1015.63
2017-04-14T05:23:17.198Z,1015.65
2017-04-14T05:24:39.972Z,1015.64
2017-04-14T05:26:01.483Z,1015.72
2017-04-14T05:27:23.409Z,1015.7
2017-04-14T05:28:45.556Z,1015.72
2017-04-14T05:30:08.109Z,1015.69
2017-04-14T05:31:30.285Z,1015.69
2017-04-14T05:32:51.799Z,1015.72
2017-04-14T05:34:13.659Z,1015.71
2017-04-14T05:35:35.462Z,1015.71
2017-04-14T05:36:57.286Z,1015.79
2017-04-14T05:38:19.102Z,1015.82
2017-04-14T05:39:40.628Z,1015.9
2017-04-14T05:41:02.623Z,1015.89
2017-04-14T05:42:24.813Z,1015.87
2017-04-14T05:43:46.345Z,1015.91
2017-04-14T05:45:08.528Z,1015.98
2017-04-14T05:46:31.019Z,1015.99
2017-04-14T05:47:52.525Z,1016.03
2017-04-14T05:49:14.369Z,1016.09
2017-04-14T05:50:36.538Z,1016.05
2017-04-14T05:51:58.407Z,1016.11
2017-04-14T05:53:19.679Z,1016.13
2017-04-14T05:54:41.619Z,1016.12
2017-04-14T05:56:03.469Z,1016.14
2017-04-14T05:57:26.108Z,1016.19
2017-04-14T05:58:47.640Z,1016.21
2017-04-14T06:00:09.520Z,1016.23
2017-04-14T06:01:31.680Z,1016.23
2017-04-14T06:02:53.850Z,1016.35
2017-04-14T06:04:15.684Z,1016.41
2017-04-14T06:05:37.560Z,1016.4
2017-04-14T06:06:59.717Z,1016.38
2017-04-14T06:08:22.185Z,1016.4
2017-04-14T06:09:44.647Z,1016.39
2017-04-14T06:11:06.565Z,1016.36
2017-04-14T06:12:29.033Z,1016.39
2017-04-14T06:13:51.853Z,1016.41
2017-04-14T06:15:13.361Z,1016.42
2017-04-14T06:16:35.560Z,1016.4
2017-04-14T06:17:58.179Z,1016.42
2017-04-14T06:19:20.346Z,1016.4
2017-04-14T06:20:42.816Z,1016.44
2017-04-14T06:22:04.660Z,1016.44
2017-04-14T06:23:26.501Z,1016.43
2017-04-14T06:24:48.335Z,1016.42
2017-04-14T06:26:09.850Z,1016.46
2017-04-14T06:27:31.769Z,1016.49
2017-04-14T06:28:54.038Z,1016.45
2017-04-14T06:30:16.696Z,1016.48
2017-04-14T06:31:38.328Z,1016.46
2017-04-14T06:33:00.295Z,1016.47
2017-04-14T06:34:22.229Z,1016.44
2017-04-14T06:35:44.364Z,1016.47
2017-04-14T06:37:05.910Z,1016.42
2017-04-14T06:38:28.168Z,1016.42
2017-04-14T06:39:50.351Z,1016.4
2017-04-14T06:41:12.197Z,1016.38
2017-04-14T06:42:34.088Z,1016.39
2017-04-14T06:43:56.253Z,1016.33
2017-04-14T06:45:18.174Z,1016.34
2017-04-14T06:46:40.706Z,1016.27
2017-04-14T06:48:02.558Z,1016.3
2017-04-14T06:49:25.055Z,1016.35
2017-04-14T06:50:46.919Z,1016.25
2017-04-14T06:52:09.339Z,1016.3
2017-04-14T06:53:31.301Z,1016.27
2017-04-14T06:54:53.479Z,1016.26
2017-04-14T06:56:15.660Z,1016.25
2017-04-14T06:57:37.836Z,1016.25
2017-04-14T06:59:00.007Z,1016.23
2017-04-14T07:00:22.173Z,1016.21
2017-04-14T07:01:43.705Z,1016.19
2017-04-14T07:03:05.559Z,1016.17
2017-04-14T07:04:27.399Z,1016.2
2017-04-14T07:05:49.919Z,1016.18
2017-04-14T07:07:11.922Z,1016.18
2017-04-14T07:08:34.687Z,1016.2
2017-04-14T07:09:57.161Z,1016.16
2017-04-14T07:11:18.682Z,1016.14
2017-04-14T07:12:40.538Z,1016.16
2017-04-14T07:14:02.970Z,1016.2
2017-04-14T07:15:24.498Z,1016.13
2017-04-14T07:16:47.037Z,1016.16
2017-04-14T07:18:08.888Z,1016.16
2017-04-14T07:19:31.298Z,1016.14
2017-04-14T07:20:52.606Z,1016.15
2017-04-14T07:22:14.880Z,1016.17
2017-04-14T07:23:36.730Z,1016.12
2017-04-14T07:24:59.568Z,1016.17
2017-04-14T07:26:21.889Z,1016.14
2017-04-14T07:27:43.749Z,1016.12
2017-04-14T07:29:05.730Z,1016.14
2017-04-14T07:30:28.239Z,1016.19
2017-04-14T07:31:50.090Z,1016.16
2017-04-14T07:33:12.245Z,1016.16
2017-04-14T07:34:33.787Z,1016.19
2017-04-14T07:35:56.048Z,1016.19
2017-04-14T07:37:18.548Z,1016.19
2017-04-14T07:38:40.818Z,1016.18
2017-04-14T07:40:03.428Z,1016.19
2017-04-14T07:41:25.278Z,1016.22
2017-04-14T07:42:47.442Z,1016.2
2017-04-14T07:44:09.408Z,1016.19
2017-04-14T07:45:30.960Z,1016.17
2017-04-14T07:46:53.696Z,1016.16
2017-04-14T07:48:15.247Z,1016.19
2017-04-14T07:49:37.491Z,1016.1
2017-04-14T07:50:59.358Z,1016.08
2017-04-14T07:52:21.490Z,1015.95
2017-04-14T07:53:43.678Z,1015.9
2017-04-14T07:55:05.941Z,1015.91
2017-04-14T07:56:28.102Z,1015.87
2017-04-14T07:57:50.593Z,1015.93
2017-04-14T07:59:12.766Z,1016
2017-04-14T08:00:34.923Z,1015.98
2017-04-14T08:01:56.247Z,1015.95
2017-04-14T08:03:19.038Z,1015.96
2017-04-14T08:04:40.900Z,1015.97
2017-04-14T08:06:02.745Z,1016
2017-04-14T08:07:24.587Z,1015.9
2017-04-14T08:08:47.361Z,1015.98
2017-04-14T08:10:09.226Z,1015.95
2017-04-14T08:11:31.399Z,1015.99
2017-04-14T08:12:54.016Z,1015.94
2017-04-14T08:14:15.838Z,1015.91
2017-04-14T08:15:38.000Z,1015.95
2017-04-14T08:17:00.286Z,1015.89
2017-04-14T08:18:22.459Z,1015.94
2017-04-14T08:19:44.892Z,1015.94
2017-04-14T08:21:06.793Z,1015.96
2017-04-14T08:22:28.964Z,1015.92
2017-04-14T08:23:51.149Z,1015.89
2017-04-14T08:25:13.369Z,1015.95
2017-04-14T08:26:35.208Z,1015.99
2017-04-14T08:27:56.416Z,1016.01
2017-04-14T08:29:18.322Z,1015.98
2017-04-14T08:30:40.200Z,1016.03
2017-04-14T08:32:02.396Z,1016.01
2017-04-14T08:33:24.584Z,1016
2017-04-14T08:34:46.118Z,1015.98
2017-04-14T08:36:08.950Z,1015.95
2017-04-14T08:37:31.130Z,1015.9
2017-04-14T08:38:53.284Z,1015.88
2017-04-14T08:40:15.458Z,1015.91
2017-04-14T08:41:37.985Z,1015.91
2017-04-14T08:42:59.925Z,1015.88
2017-04-14T08:44:22.107Z,1015.84
2017-04-14T08:45:44.578Z,1015.9
2017-04-14T08:47:06.730Z,1015.87
2017-04-14T08:48:28.269Z,1015.87
2017-04-14T08:49:50.441Z,1015.87
2017-04-14T08:51:12.682Z,1015.84
2017-04-14T08:52:34.867Z,1015.89
2017-04-14T08:53:56.737Z,1015.89
2017-04-14T08:55:18.968Z,1015.9
2017-04-14T08:56:41.174Z,1015.93
2017-04-14T08:58:03.281Z,1015.92
2017-04-14T08:59:25.439Z,1015.94
2017-04-14T09:00:47.583Z,1015.95
2017-04-14T09:02:09.775Z,1015.96
2017-04-14T09:03:32.529Z,1015.98
2017-04-14T09:04:54.831Z,1015.96
2017-04-14T09:06:16.674Z,1016
2017-04-14T09:07:38.630Z,1016.01
2017-04-14T09:09:01.436Z,1016.01
2017-04-14T09:10:22.961Z,1016.03
2017-04-14T09:11:44.827Z,1015.99
2017-04-14T09:13:07.023Z,1016
2017-04-14T09:14:29.468Z,1016
2017-04-14T09:15:51.966Z,1015.95
2017-04-14T09:17:13.829Z,1015.98
2017-04-14T09:18:36.016Z,1016
2017-04-14T09:19:57.960Z,1015.93
2017-04-14T09:21:19.867Z,1015.87
2017-04-14T09:22:41.099Z,1015.87
2017-04-14T09:24:02.942Z,1015.92
2017-04-14T09:25:25.768Z,1015.8
2017-04-14T09:26:47.620Z,1015.77
2017-04-14T09:28:09.459Z,1015.7
2017-04-14T09:29:31.771Z,1015.7
2017-04-14T09:30:53.868Z,1015.7
2017-04-14T09:32:16.422Z,1015.7
2017-04-14T09:33:37.721Z,1015.76
2017-04-14T09:34:59.260Z,1015.81
2017-04-14T09:36:21.684Z,1015.79
2017-04-14T09:37:43.930Z,1015.8
2017-04-14T09:39:06.096Z,1015.72
2017-04-14T09:40:27.638Z,1015.79
2017-04-14T09:41:49.826Z,1015.75
2017-04-14T09:43:12.007Z,1015.74
2017-04-14T09:44:34.290Z,1015.77
2017-04-14T09:45:56.262Z,1015.84
2017-04-14T09:47:18.999Z,1015.86
2017-04-14T09:48:41.193Z,1015.82
2017-04-14T09:50:03.358Z,1015.85
2017-04-14T09:51:25.564Z,1015.84
2017-04-14T09:52:48.374Z,1015.79
2017-04-14T09:54:10.023Z,1015.79
2017-04-14T09:55:32.521Z,1015.76
2017-04-14T09:56:54.719Z,1015.84
2017-04-14T09:58:16.871Z,1015.83
2017-04-14T09:59:38.392Z,1015.85
2017-04-14T10:01:00.660Z,1015.81
2017-04-14T10:02:22.841Z,1015.78
2017-04-14T10:03:45.601Z,1015.77
2017-04-14T10:05:08.082Z,1015.7
2017-04-14T10:06:29.980Z,1015.72
2017-04-14T10:07:52.244Z,1015.7
2017-04-14T10:09:14.779Z,1015.75
2017-04-14T10:10:36.939Z,1015.78
2017-04-14T10:11:59.163Z,1015.73
2017-04-14T10:13:21.019Z,1015.79
2017-04-14T10:14:43.278Z,1015.74
2017-04-14T10:16:05.740Z,1015.78
2017-04-14T10:17:28.299Z,1015.72
2017-04-14T10:18:50.478Z,1015.67
2017-04-14T10:20:12.458Z,1015.67
2017-04-14T10:21:34.629Z,1015.68
2017-04-14T10:22:56.819Z,1015.64
2017-04-14T10:24:18.733Z,1015.63
2017-04-14T10:25:41.460Z,1015.57
2017-04-14T10:27:03.931Z,1015.56
2017-04-14T10:28:26.124Z,1015.48
2017-04-14T10:29:48.459Z,1015.54
2017-04-14T10:31:11.259Z,1015.57
2017-04-14T10:32:33.099Z,1015.61
2017-04-14T10:33:54.951Z,1015.54
2017-04-14T10:35:16.792Z,1015.59
2017-04-14T10:36:39.586Z,1015.54
2017-04-14T10:38:01.770Z,1015.6
2017-04-14T10:39:23.614Z,1015.66
2017-04-14T10:40:45.773Z,1015.62
2017-04-14T10:42:08.201Z,1015.67
2017-04-14T10:43:30.454Z,1015.65
2017-04-14T10:44:52.295Z,1015.67
2017-04-14T10:46:14.521Z,1015.64
2017-04-14T10:47:36.932Z,1015.68
2017-04-14T10:48:59.089Z,1015.69
2017-04-14T10:50:20.958Z,1015.65
2017-04-14T10:51:42.529Z,1015.69
2017-04-14T10:53:05.004Z,1015.66
2017-04-14T10:54:27.177Z,1015.62
2017-04-14T10:55:49.341Z,1015.61
2017-04-14T10:57:11.509Z,1015.62
2017-04-14T10:58:33.630Z,1015.65
2017-04-14T10:59:55.814Z,1015.67
2017-04-14T11:01:18.039Z,1015.64
2017-04-14T11:02:39.885Z,1015.66
2017-04-14T11:04:02.476Z,1015.63
2017-04-14T11:05:24.349Z,1015.68
2017-04-14T11:06:46.532Z,1015.67
2017-04-14T11:08:08.062Z,1015.68
2017-04-14T11:09:30.520Z,1015.68
2017-04-14T11:10:52.433Z,1015.63
2017-04-14T11:12:14.605Z,1015.67
2017-04-14T11:13:36.877Z,1015.62
2017-04-14T11:14:59.152Z,1015.55
2017-04-14T11:16:21.064Z,1015.5
2017-04-14T11:17:43.288Z,1015.48
2017-04-14T11:19:05.211Z,1015.5
2017-04-14T11:20:27.664Z,1015.56
2017-04-14T11:21:49.849Z,1015.51
2017-04-14T11:23:11.708Z,1015.44
2017-04-14T11:24:33.269Z,1015.45
2017-04-14T11:25:55.704Z,1015.45
2017-04-14T11:27:16.933Z,1015.52
2017-04-14T11:28:38.214Z,1015.46
2017-04-14T11:30:00.053Z,1015.47
2017-04-14T11:31:22.642Z,1015.45
2017-04-14T11:32:44.798Z,1015.47
2017-04-14T11:34:06.674Z,1015.44
2017-04-14T11:35:27.894Z,1015.52
2017-04-14T11:36:50.627Z,1015.54
2017-04-14T11:38:13.148Z,1015.54
2017-04-14T11:39:35.308Z,1015.63
2017-04-14T11:40:57.502Z,1015.64
2017-04-14T11:42:19.658Z,1015.64
2017-04-14T11:43:42.246Z,1015.62
2017-04-14T11:45:04.732Z,1015.63
2017-04-14T11:46:26.571Z,1015.57
2017-04-14T11:47:49.407Z,1015.58
2017-04-14T11:49:11.625Z,1015.61
2017-04-14T11:50:33.820Z,1015.53
2017-04-14T11:51:56.288Z,1015.6
2017-04-14T11:53:18.506Z,1015.6
2017-04-14T11:54:40.639Z,1015.55
2017-04-14T11:56:03.128Z,1015.62
2017-04-14T11:57:25.309Z,1015.6
2017-04-14T11:58:47.786Z,1015.62
2017-04-14T12:00:09.318Z,1015.61
2017-04-14T12:01:31.850Z,1015.61
2017-04-14T12:02:54.049Z,1015.59
2017-04-14T12:04:16.479Z,1015.53
2017-04-14T12:05:38.649Z,1015.57
2017-04-14T12:07:00.811Z,1015.58
2017-04-14T12:08:22.398Z,1015.55
2017-04-14T12:09:45.179Z,1015.62
2017-04-14T12:11:07.045Z,1015.58
2017-04-14T12:12:29.197Z,1015.56
2017-04-14T12:13:51.358Z,1015.48
2017-04-14T12:15:13.469Z,1015.56
2017-04-14T12:16:35.638Z,1015.57
2017-04-14T12:17:58.219Z,1015.61
2017-04-14T12:19:20.708Z,1015.51
2017-04-14T12:20:43.056Z,1015.54
2017-04-14T12:22:05.538Z,1015.55
2017-04-14T12:23:27.696Z,1015.51
2017-04-14T12:24:49.868Z,1015.49
2017-04-14T12:26:12.077Z,1015.51
2017-04-14T12:27:33.998Z,1015.54
2017-04-14T12:28:56.231Z,1015.55
2017-04-14T12:30:18.427Z,1015.54
2017-04-14T12:31:40.057Z,1015.54
2017-04-14T12:33:01.948Z,1015.54
2017-04-14T12:34:24.407Z,1015.47
2017-04-14T12:35:46.680Z,1015.49
2017-04-14T12:37:09.488Z,1015.45
2017-04-14T12:38:31.670Z,1015.42
2017-04-14T12:39:54.209Z,1015.43
2017-04-14T12:41:16.067Z,1015.44
2017-04-14T12:42:38.943Z,1015.49
2017-04-14T12:44:01.417Z,1015.45
2017-04-14T12:45:22.983Z,1015.42
2017-04-14T12:46:44.878Z,1015.46
2017-04-14T12:48:07.306Z,1015.44
2017-04-14T12:49:29.558Z,1015.49
2017-04-14T12:50:51.867Z,1015.48
2017-04-14T12:52:14.018Z,1015.42
2017-04-14T12:53:36.107Z,1015.52
2017-04-14T12:54:57.977Z,1015.43
2017-04-14T12:56:20.229Z,1015.43
2017-04-14T12:57:42.181Z,1015.5
2017-04-14T12:59:04.919Z,1015.54
2017-04-14T13:00:27.110Z,1015.49
2017-04-14T13:01:48.950Z,1015.49
2017-04-14T13:03:10.870Z,1015.47
2017-04-14T13:04:33.311Z,1015.46
2017-04-14T13:05:55.180Z,1015.44
2017-04-14T13:07:17.358Z,1015.43
2017-04-14T13:08:38.858Z,1015.45
2017-04-14T13:10:01.158Z,1015.44
2017-04-14T13:11:23.008Z,1015.39
2017-04-14T13:12:45.553Z,1015.43
2017-04-14T13:14:07.728Z,1015.44
2017-04-14T13:15:30.518Z,1015.48
2017-04-14T13:16:52.672Z,1015.46
2017-04-14T13:18:14.658Z,1015.5
2017-04-14T13:19:36.550Z,1015.44
2017-04-14T13:20:58.759Z,1015.43
2017-04-14T13:22:20.925Z,1015.4
2017-04-14T13:23:42.837Z,1015.44
2017-04-14T13:25:04.982Z,1015.47
2017-04-14T13:26:27.394Z,1015.45
2017-04-14T13:27:49.553Z,1015.4
2017-04-14T13:29:12.113Z,1015.41
2017-04-14T13:30:34.659Z,1015.42
2017-04-14T13:31:57.149Z,1015.47
2017-04-14T13:33:19.284Z,1015.41
2017-04-14T13:34:41.460Z,1015.42
2017-04-14T13:36:03.287Z,1015.38
2017-04-14T13:37:25.708Z,1015.41
2017-04-14T13:38:47.649Z,1015.38
2017-04-14T13:40:10.119Z,1015.4
2017-04-14T13:41:32.289Z,1015.39
2017-04-14T13:42:54.744Z,1015.48
2017-04-14T13:44:16.422Z,1015.48
2017-04-14T13:45:37.934Z,1015.41
2017-04-14T13:47:00.429Z,1015.46
2017-04-14T13:48:22.996Z,1015.43
2017-04-14T13:49:45.200Z,1015.38
2017-04-14T13:51:07.368Z,1015.37
2017-04-14T13:52:29.197Z,1015.39
2017-04-14T13:53:51.447Z,1015.37
2017-04-14T13:55:13.329Z,1015.31
2017-04-14T13:56:35.488Z,1015.31
2017-04-14T13:57:57.956Z,1015.3
2017-04-14T13:59:20.189Z,1015.29
2017-04-14T14:00:42.038Z,1015.31
2017-04-14T14:02:03.884Z,1015.24
2017-04-14T14:03:25.110Z,1015.32
2017-04-14T14:04:47.602Z,1015.35
2017-04-14T14:06:09.785Z,1015.36
2017-04-14T14:07:31.755Z,1015.39
2017-04-14T14:08:54.270Z,1015.37
2017-04-14T14:10:16.500Z,1015.37
2017-04-14T14:11:38.658Z,1015.38
2017-04-14T14:13:01.148Z,1015.38
2017-04-14T14:14:22.652Z,1015.42
2017-04-14T14:15:45.381Z,1015.39
2017-04-14T14:17:07.242Z,1015.41
2017-04-14T14:18:29.409Z,1015.4
2017-04-14T14:19:51.683Z,1015.46
2017-04-14T14:21:14.469Z,1015.39
2017-04-14T14:22:36.721Z,1015.38
2017-04-14T14:23:58.272Z,1015.37
2017-04-14T14:25:20.438Z,1015.35
2017-04-14T14:26:42.858Z,1015.35
2017-04-14T14:28:04.404Z,1015.35
2017-04-14T14:29:26.569Z,1015.33
2017-04-14T14:30:48.728Z,1015.31
2017-04-14T14:32:11.214Z,1015.29
2017-04-14T14:33:33.061Z,1015.34
2017-04-14T14:34:55.647Z,1015.34
2017-04-14T14:36:18.127Z,1015.34
2017-04-14T14:37:40.640Z,1015.38
2017-04-14T14:39:02.817Z,1015.34
2017-04-14T14:40:24.745Z,1015.38
2017-04-14T14:41:46.919Z,1015.32
2017-04-14T14:43:09.097Z,1015.35
2017-04-14T14:44:31.740Z,1015.36
2017-04-14T14:45:53.601Z,1015.34
2017-04-14T14:47:15.764Z,1015.29
2017-04-14T14:48:37.946Z,1015.33
2017-04-14T14:49:59.796Z,1015.32
2017-04-14T14:51:20.999Z,1015.28
2017-04-14T14:52:42.848Z,1015.29
2017-04-14T14:54:05.056Z,1015.27
2017-04-14T14:55:27.300Z,1015.24
2017-04-14T14:56:49.457Z,1015.31
2017-04-14T14:58:11.297Z,1015.33
2017-04-14T14:59:34.110Z,1015.34
2017-04-14T15:00:56.288Z,1015.36
2017-04-14T15:02:18.188Z,1015.31
2017-04-14T15:03:39.726Z,1015.31
2017-04-14T15:05:01.890Z,1015.29
2017-04-14T15:06:24.052Z,1015.33
2017-04-14T15:07:45.886Z,1015.31
2017-04-14T15:09:08.053Z,1015.28
2017-04-14T15:10:30.528Z,1015.3
2017-04-14T15:11:53.015Z,1015.31
2017-04-14T15:13:14.949Z,1015.26
2017-04-14T15:14:37.432Z,1015.28
2017-04-14T15:15:59.869Z,1015.26
2017-04-14T15:17:22.039Z,1015.24
2017-04-14T15:18:43.925Z,1015.25
2017-04-14T15:20:06.111Z,1015.27
2017-04-14T15:21:28.322Z,1015.26
2017-04-14T15:22:50.500Z,1015.25
2017-04-14T15:24:12.659Z,1015.2
2017-04-14T15:25:34.833Z,1015.19
2017-04-14T15:26:57.677Z,1015.18
2017-04-14T15:28:19.849Z,1015.19
2017-04-14T15:29:41.717Z,1015.21
2017-04-14T15:31:03.289Z,1015.18
2017-04-14T15:32:25.811Z,1015.16
2017-04-14T15:33:48.308Z,1015.12
2017-04-14T15:35:10.918Z,1015.11
2017-04-14T15:36:32.798Z,1015.09
2017-04-14T15:37:55.031Z,1015.04
2017-04-14T15:39:17.531Z,1015.05
2017-04-14T15:40:40.037Z,1015.07
2017-04-14T15:42:01.567Z,1015.03
2017-04-14T15:43:23.995Z,1015.03
2017-04-14T15:44:45.239Z,1014.99
2017-04-14T15:46:07.120Z,1014.97
2017-04-14T15:47:29.269Z,1014.98
2017-04-14T15:48:51.688Z,1014.98
2017-04-14T15:50:13.239Z,1015
2017-04-14T15:51:35.530Z,1015.1
2017-04-14T15:52:57.422Z,1015.12
2017-04-14T15:54:19.872Z,1015.11
2017-04-14T15:55:42.463Z,1015.06
2017-04-14T15:57:04.773Z,1015.06
2017-04-14T15:58:27.108Z,1015.05
2017-04-14T15:59:48.957Z,1015.02
2017-04-14T16:01:10.804Z,1015.07
2017-04-14T16:02:32.958Z,1015.07
2017-04-14T16:03:55.193Z,1015.1
2017-04-14T16:05:17.712Z,1015.05
2017-04-14T16:06:40.330Z,1015.07
2017-04-14T16:08:02.297Z,1015.07
2017-04-14T16:09:24.788Z,1015.05
2017-04-14T16:10:47.333Z,1015.02
2017-04-14T16:12:09.921Z,1015.05
2017-04-14T16:13:31.758Z,1015.01
2017-04-14T16:14:53.930Z,1014.99
2017-04-14T16:16:16.766Z,1015
2017-04-14T16:17:39.008Z,1014.97
2017-04-14T16:19:01.183Z,1015.06
2017-04-14T16:20:22.732Z,1015.05
2017-04-14T16:21:45.251Z,1015.07
2017-04-14T16:23:07.737Z,1015.05
2017-04-14T16:24:29.563Z,1015.09
2017-04-14T16:25:51.110Z,1015.08
2017-04-14T16:27:13.968Z,1015.07
2017-04-14T16:28:36.121Z,1015.09
2017-04-14T16:29:58.298Z,1015.08
2017-04-14T16:31:20.512Z,1015.04
2017-04-14T16:32:43.042Z,1015.06
2017-04-14T16:34:04.910Z,1014.99
2017-04-14T16:35:27.100Z,1014.99
2017-04-14T16:36:49.273Z,1015.01
2017-04-14T16:38:11.803Z,1015